Magnolia, Iowa
Current Conditions -  °F | °C
As of 4:54 PM on Wednesday 26 Nov 2014 (Local Time) from KTQE Reporting Station
Overcast Overcast  
Wind Chill: 11°   Ceiling: 1600
Heat Index: 25°   Visibility: 10mi
Dew Point: 18°   Wind: 20mph
Humidity: 75%   Direction: 330°NNW
Pressure: 30.32"   Gusts: NA
Location:  41.7°N, 95.88°W
Report Text: KTQE 262254Z AUTO 33017KT 10SM OVC016 M04/M08 A3032 RMK AO2 PK WND 33027/2200 SLP275 T10391078
Loading
Personal Weather Stations






























Interactive Weather Map New forecast layout! Learn more

10-Day Weather Forecast

Advertisements
Track Severe Weather on mobile